Latest Weather Observations for Kilmore Gap

IDV60801

Issued at 7:05 pm EDT Saturday 1 November 2014 (issued every 30 minutes, with the page automatically refreshed every 10 minutes)

About weather observations | Map of weather stations | Latest weather observations for VIC | Other Formats
Station Details ID: 088162 Name: KILMORE GAP Lat: -37.38 Lon: 144.97 Height: 527.8 m
Data from the previous 72 hours. | See also: Recent months at Kilmore Gap
Date/Time
EDT
Temp
°C
App
Temp
°C
Dew
Point
Rel
Hum
%
Delta-T
°C
Wind Press
QNH
hPa
Press
MSL
hPa
Rain
since 9 am
mm
Dir
 
Spd
km/h
Gust
km/h
Spd
kts
Gust
kts
01/07:05pm 8.6 0.7 1.3 60 3.1 SW 32 50 17 27 1012.1 - 1.2
01/07:00pm 8.7 1.2 1.4 60 3.1 SW 30 46 16 25 1012.1 - 1.2
01/06:33pm 8.5 1.6 2.5 66 2.6 WSW 28 46 15 25 1011.7 - 1.2
01/06:30pm 8.5 1.2 2.3 65 2.7 WSW 30 46 16 25 1011.6 - 1.2
01/06:00pm 9.2 1.5 2.5 63 2.9 WSW 32 50 17 27 1011.3 1010.6 1.2
01/05:46pm 9.9 1.7 2.7 61 3.2 WSW 35 54 19 29 1011.0 - 1.2
01/05:30pm 10.1 1.7 1.5 55 3.7 WSW 35 52 19 28 1010.9 - 1.2
01/05:03pm 9.7 3.0 3.9 67 2.6 WSW 28 48 15 26 1010.1 - 1.2
01/05:00pm 9.6 4.1 5.8 77 1.8 WSW 24 41 13 22 1010.1 - 1.2
01/04:30pm 6.9 -2.2 4.0 82 1.3 WSW 41 63 22 34 1009.9 - 1.2
01/04:20pm 8.3 1.8 4.5 77 1.7 WSW 28 54 15 29 1009.7 - 1.2
01/04:00pm 9.7 5.4 6.8 82 1.4 WSW 19 26 10 14 1009.3 - 1.2
01/03:30pm 6.9 -1.3 4.9 87 0.9 WSW 37 61 20 33 1009.3 - 1.2
01/03:13pm 11.6 4.5 3.4 57 3.7 SW 30 48 16 26 1008.4 - 1.2
01/03:00pm 10.8 4.7 4.7 66 2.8 WSW 26 37 14 20 1008.4 1007.8 1.2
01/02:30pm 10.9 3.7 5.0 67 2.8 WSW 32 54 17 29 1008.0 - 1.2
01/02:28pm 11.1 4.3 5.0 66 2.9 WSW 30 54 16 29 1007.9 - 1.2
01/02:00pm 8.8 1.8 5.9 82 1.4 SW 32 46 17 25 1007.9 - 1.2
01/01:44pm 10.3 4.2 6.5 77 1.8 WSW 28 48 15 26 1007.7 - 1.0
01/01:30pm 9.3 4.1 7.1 86 1.1 WSW 24 39 13 21 1007.5 - 1.0
01/01:00pm 10.7 5.9 7.2 79 1.7 SW 22 32 12 17 1007.2 - 1.0
01/12:30pm 11.2 4.3 6.3 72 2.4 SW 32 50 17 27 1006.8 - 1.0
01/12:23pm 12.0 4.9 5.6 65 3.1 SW 32 50 17 27 1006.5 - 1.0
01/12:00pm 13.4 7.3 4.8 56 4.1 WSW 26 43 14 23 1006.2 1005.5 1.0
01/11:39am 12.3 5.1 5.2 62 3.4 WSW 32 50 17 27 1006.0 - 1.0
01/11:30am 12.1 6.4 6.6 69 2.7 SW 26 41 14 22 1006.1 - 1.0
01/11:00am 12.0 6.8 8.8 81 1.6 WSW 26 35 14 19 1006.0 - 1.0
01/10:35am 10.2 3.8 7.1 81 1.5 WSW 30 43 16 23 1005.7 - 1.0
01/10:30am 10.1 3.8 7.2 82 1.4 WSW 30 43 16 23 1005.6 - 1.0
01/10:13am 9.1 1.5 9.1 100 0.0 WSW 39 52 21 28 1005.2 - 1.0
01/10:00am 8.7 2.7 8.7 100 0.0 SSW 30 52 16 28 1005.0 - 1.0
01/09:56am 9.1 3.6 9.1 100 0.0 SW 28 50 15 27 1004.9 - 1.0
01/09:40am 9.7 4.7 9.7 100 0.0 SW 26 43 14 23 1004.8 - 1.0
01/09:30am 9.2 3.0 9.2 100 0.0 SW 32 43 17 23 1004.6 - 1.0
01/09:16am 9.4 4.0 9.4 100 0.0 SW 28 57 15 31 1004.5 - 0.8
01/09:10am 10.4 6.9 10.2 99 0.1 SW 19 46 10 25 1004.2 - 0.6
01/09:00am 11.3 8.8 11.1 99 0.1 SW 15 24 8 13 1004.0 1003.3 4.4
01/08:53am 11.2 8.3 11.0 99 0.1 SW 17 24 9 13 1004.0 - 4.4
01/08:30am 10.9 7.6 10.9 100 0.0 SW 19 24 10 13 1003.7 - 4.4
01/08:00am 10.8 8.6 10.8 100 0.0 SSW 13 17 7 9 1003.3 - 4.4
01/07:56am 10.7 8.5 10.7 100 0.0 SSW 13 19 7 10 1003.3 - 4.4
01/07:53am 10.7 8.5 10.7 100 0.0 SW 13 19 7 10 1003.2 - 4.4
01/07:30am 10.8 9.0 10.8 100 0.0 SW 11 17 6 9 1003.1 - 4.2
01/07:08am 10.8 9.0 10.8 100 0.0 SSW 11 17 6 9 1002.7 - 3.2
01/07:06am 10.7 8.9 10.7 100 0.0 SSW 11 17 6 9 1002.6 - 3.2
01/07:00am 10.7 8.1 10.7 100 0.0 SSW 15 22 8 12 1002.3 - 3.2
01/06:56am 10.7 8.1 10.7 100 0.0 SSW 15 24 8 13 1001.9 - 3.0
01/06:30am 11.1 8.5 10.8 98 0.2 SW 15 20 8 11 1001.4 - 1.2
01/06:10am 11.7 9.8 10.4 92 0.7 W 11 17 6 9 1001.7 - 0.4
01/06:00am 12.2 9.9 10.3 88 1.0 W 13 17 7 9 1001.6 1000.9 0.2
01/05:30am 12.4 10.6 9.6 83 1.5 ESE 9 11 5 6 1000.5 - 0.2
01/05:00am 12.3 9.7 9.5 83 1.5 SE 13 15 7 8 1000.2 - 0.2
01/04:30am 12.4 9.5 9.8 84 1.4 SSE 15 19 8 10 1000.5 - 0.2
01/04:00am 12.4 9.9 9.6 83 1.5 SSE 13 20 7 11 1000.7 - 0.2
01/03:30am 12.9 8.6 9.4 79 1.8 S 22 32 12 17 1001.7 - 0.2
01/03:00am 13.0 8.3 9.3 78 1.9 S 24 41 13 22 1001.0 1000.2 0.2
01/02:30am 13.9 7.8 8.3 69 2.9 SSW 30 44 16 24 1001.6 - 0.2
01/02:07am 14.5 8.5 8.5 67 3.1 S 30 50 16 27 1000.8 - 0.2
01/02:00am 14.7 9.2 9.3 70 2.8 S 28 39 15 21 1000.8 - 0.2
01/01:30am 15.1 10.6 10.1 72 2.7 S 24 32 13 17 1001.0 - 0.2
01/01:00am 16.3 12.3 9.0 62 3.9 S 20 28 11 15 1001.2 - 0.2
01/12:30am 18.1 13.2 6.9 48 5.8 SSW 22 33 12 18 1000.6 - 0.2
01/12:00am 22.2 14.9 4.3 31 9.0 N 32 37 17 20 999.5 998.7 0.2
 
Date/Time
EDT
Temp
°C
App
Temp
°C
Dew
Point
Rel
Hum
%
Delta-T
°C
Wind Press
QNH
hPa
Press
MSL
hPa
Rain
since 9 am
mm
Dir
 
Spd
km/h
Gust
km/h
Spd
kts
Gust
kts
31/11:30pm 22.2 14.9 4.7 32 8.9 N 32 46 17 25 999.7 - 0.2
31/11:00pm 22.6 15.1 4.2 30 9.2 N 33 39 18 21 1000.0 - 0.2
31/10:30pm 23.1 15.6 4.6 30 9.4 N 33 39 18 21 1000.3 - 0.2
31/10:00pm 23.7 16.1 4.1 28 9.9 N 33 43 18 23 1000.8 - 0.2
31/09:30pm 24.0 16.4 3.9 27 10.1 N 33 39 18 21 1000.9 - 0.2
31/09:00pm 23.8 16.4 4.2 28 10.0 N 32 41 17 22 1001.2 1000.9 0.2
31/08:30pm 24.3 17.7 4.1 27 10.2 N 28 35 15 19 1001.3 - 0.2
31/08:00pm 24.7 18.0 3.9 26 10.5 N 28 35 15 19 1001.7 - 0.2
31/07:30pm 24.7 18.6 5.0 28 10.2 N 26 32 14 17 1001.9 - 0.2
31/07:00pm 24.9 18.4 4.6 27 10.4 N 28 39 15 21 1002.2 - 0.2
31/06:30pm 25.7 18.8 4.8 26 10.8 N 30 44 16 24 1002.6 - 0.2
31/06:00pm 27.5 19.1 3.9 22 12.2 NNW 37 50 20 27 1003.0 1002.7 0.2
31/05:30pm 26.4 18.0 3.6 23 11.6 NNW 37 50 20 27 1003.2 - 0.2
31/05:00pm 26.8 17.7 4.0 23 11.7 N 41 56 22 30 1003.4 - 0.2
31/04:49pm 27.5 19.9 5.7 25 11.6 NNW 35 57 19 31 1003.6 - 0.2
31/04:30pm 27.2 17.9 4.9 24 11.7 NNW 43 57 23 31 1003.8 - 0.2
31/04:24pm 27.1 19.3 4.8 24 11.6 NNW 35 57 19 31 1003.8 - 0.2
31/04:00pm 27.0 20.2 6.9 28 10.9 N 32 48 17 26 1004.3 - 0.2
31/03:34pm 26.2 17.8 5.7 27 10.8 N 39 59 21 32 1004.6 - 0.2
31/03:30pm 26.7 18.8 7.7 30 10.4 N 39 48 21 26 1005.0 - 0.2
31/03:00pm 26.4 17.8 6.4 28 10.7 N 41 56 22 30 1005.2 1004.9 0.2
31/02:30pm 25.8 17.4 7.4 31 10.0 N 41 54 22 29 1005.9 - 0.2
31/02:00pm 24.7 17.2 7.8 34 9.2 N 37 56 20 30 1006.6 - 0.2
31/01:59pm 24.8 17.3 7.9 34 9.2 N 37 56 20 30 1006.7 - 0.2
31/01:30pm 23.5 15.4 8.8 39 8.1 N 41 52 22 28 1007.0 - 0.2
31/01:00pm 22.2 15.7 9.0 43 7.2 N 33 43 18 23 1007.7 - 0.2
31/12:30pm 20.5 13.5 8.5 46 6.4 N 35 44 19 24 1008.2 - 0.2
31/12:00pm 20.1 13.9 9.4 50 5.8 N 32 43 17 23 1009.1 1008.9 0.2
31/11:30am 18.5 12.4 9.6 56 4.8 N 32 41 17 22 1009.3 - 0.0
31/11:00am 17.9 12.4 10.5 62 4.1 N 30 37 16 20 1009.8 - 0.0
31/10:30am 17.0 11.2 9.4 61 4.1 N 30 37 16 20 1010.4 - 0.0
31/10:00am 16.5 10.8 9.9 65 3.6 N 30 37 16 20 1010.7 - 0.0
31/09:30am 15.8 9.8 8.8 63 3.7 N 30 39 16 21 1010.9 - 0.0
31/09:00am 15.0 9.5 9.1 68 3.1 N 28 33 15 18 1011.0 1010.8 0.0
31/08:30am 14.1 9.2 9.9 76 2.2 N 26 33 14 18 1011.0 - 0.0
31/08:00am 13.3 9.0 9.2 76 2.1 N 22 28 12 15 1011.1 - 0.0
31/07:30am 13.4 8.7 9.3 76 2.1 N 24 28 13 15 1011.1 - 0.0
31/07:00am 12.3 7.4 8.6 78 1.9 N 24 28 13 15 1011.2 - 0.0
31/06:30am 11.6 7.3 7.9 78 1.9 N 20 24 11 13 1011.2 - 0.0
31/06:00am 12.0 8.6 7.7 75 2.2 N 15 19 8 10 1011.0 1010.8 0.0
31/05:30am 12.7 9.8 8.0 73 2.4 NNE 13 15 7 8 1010.9 - 0.0
31/05:00am 12.5 11.2 10.0 85 1.3 NE 7 11 4 6 1010.9 - 0.0
31/04:30am 10.1 8.8 10.1 100 0.0 SE 7 11 4 6 1011.1 - 0.0
31/04:27am 10.1 8.8 10.1 100 0.0 ESE 7 11 4 6 1011.0 - 0.0
31/04:00am 8.0 5.5 8.0 100 0.0 S 11 13 6 7 1011.3 - 0.0
31/03:30am 8.2 4.9 8.2 100 0.0 S 15 17 8 9 1011.6 - 0.0
31/03:28am 8.1 4.8 8.1 100 0.0 S 15 17 8 9 1011.6 - 0.0
31/03:00am 8.3 5.4 8.3 100 0.0 SSW 13 17 7 9 1011.7 1011.5 0.0
31/02:41am 8.4 5.2 8.4 100 0.0 SSW 15 20 8 11 1011.9 - 0.0
31/02:30am 8.2 4.9 8.2 100 0.0 S 15 17 8 9 1011.9 - 0.0
31/02:17am 8.7 5.2 8.7 100 0.0 SSE 17 20 9 11 1012.0 - 0.0
31/02:00am 8.5 4.9 8.5 100 0.0 S 17 22 9 12 1012.4 - 0.0
31/01:30am 8.7 5.2 8.7 100 0.0 S 17 20 9 11 1013.1 - 0.0
31/01:13am 8.8 5.7 8.8 100 0.0 SSW 15 19 8 10 1013.4 - 0.0
31/01:00am 8.8 5.3 8.8 100 0.0 S 17 20 9 11 1013.6 - 0.0
31/12:30am 9.0 5.9 9.0 100 0.0 S 15 19 8 10 1013.8 - 0.0
31/12:19am 9.1 6.1 9.1 100 0.0 S 15 19 8 10 1013.9 - 0.0
31/12:00am 9.1 5.7 9.1 100 0.0 SSW 17 22 9 12 1013.9 1013.8 0.0
 
Date/Time
EDT
Temp
°C
App
Temp
°C
Dew
Point
Rel
Hum
%
Delta-T
°C
Wind Press
QNH
hPa
Press
MSL
hPa
Rain
since 9 am
mm
Dir
 
Spd
km/h
Gust
km/h
Spd
kts
Gust
kts
30/11:34pm 9.2 5.2 9.2 100 0.0 SSW 20 24 11 13 1014.0 - 0.0
30/11:30pm 9.2 5.2 9.2 100 0.0 SSW 20 24 11 13 1014.0 - 0.0
30/11:17pm 9.3 5.4 9.3 100 0.0 SSW 20 26 11 14 1013.9 - 0.0
30/11:00pm 9.5 5.8 9.5 100 0.0 SSW 19 24 10 13 1013.9 - 0.0
30/10:30pm 9.9 6.1 9.8 99 0.1 SSW 20 24 11 13 1014.1 - 0.0
30/10:00pm 10.3 6.4 9.4 94 0.5 SSW 20 28 11 15 1014.1 - 0.0
30/09:30pm 11.2 7.3 8.6 84 1.3 SSW 19 22 10 12 1013.9 - 0.0
30/09:00pm 12.2 8.6 8.5 78 1.9 S 17 19 9 10 1013.8 1013.7 0.0
30/08:30pm 13.4 10.1 8.0 70 2.7 SSE 15 20 8 11 1013.5 - 0.0
30/08:00pm 14.7 10.1 8.2 65 3.4 SSE 22 28 12 15 1013.4 - 0.0
30/07:30pm 15.6 10.7 8.4 62 3.7 SSE 24 28 13 15 1013.3 - 0.0
30/07:00pm 16.4 12.6 9.1 62 3.9 SSE 19 26 10 14 1013.4 - 0.0
30/06:30pm 16.9 13.0 9.6 62 3.9 SSE 20 26 11 14 1013.3 - 0.0
30/06:00pm 17.6 14.0 10.7 64 3.8 SSE 20 30 11 16 1013.5 1013.4 0.0
30/05:30pm 18.5 15.3 10.1 58 4.6 S 17 24 9 13 1013.4 - 0.0
30/05:00pm 19.7 16.6 11.5 59 4.6 S 19 24 10 13 1013.5 - 0.0
30/04:30pm 20.8 19.1 11.2 54 5.4 SW 11 20 6 11 1013.3 - 0.0
30/04:00pm 22.4 19.3 8.9 42 7.4 WNW 15 20 8 11 1013.0 - 0.0
30/03:30pm 21.8 18.0 9.0 44 7.0 NW 19 26 10 14 1013.2 - 0.0
30/03:00pm 21.8 19.5 10.3 48 6.4 NW 13 30 7 16 1013.2 1013.0 0.0
30/02:30pm 21.6 19.1 11.0 51 6.0 WNW 15 22 8 12 1013.8 - 0.0
30/02:00pm 20.9 17.0 9.5 48 6.3 NNW 20 28 11 15 1014.0 - 0.0
30/01:30pm 20.9 18.5 12.6 59 4.8 N 17 24 9 13 1014.2 - 0.0
30/01:00pm 19.1 15.5 11.7 62 4.2 NNW 22 30 12 16 1014.4 - 0.0
30/12:30pm 19.5 18.3 12.7 65 3.9 NNW 11 24 6 13 1014.8 - 0.0
30/12:00pm 17.2 15.1 11.2 68 3.3 NNW 13 20 7 11 1015.1 1015.0 0.0
30/11:30am 16.3 16.3 12.5 78 2.1 SSE 4 9 2 5 1015.6 - 0.0
30/11:00am 16.6 16.7 12.6 77 2.3 E 4 9 2 5 1015.8 - 0.0
30/10:30am 14.7 13.7 10.9 78 2.1 SW 7 13 4 7 1015.9 - 0.0
30/10:00am 14.0 13.6 11.2 83 1.5 W 4 7 2 4 1015.8 - 0.0
30/09:57am 13.4 12.4 10.4 82 1.6 S 6 9 3 5 1015.8 - 0.0
30/09:30am 13.0 12.0 11.1 88 1.0 SE 7 19 4 10 1015.9 - 0.0
30/09:26am 12.7 11.7 10.9 89 1.0 SE 7 13 4 7 1015.9 - 0.0
30/09:18am 12.4 11.1 10.1 86 1.2 SE 7 9 4 5 1015.9 - 0.0
30/09:00am 11.9 10.5 11.0 94 0.5 SSW 9 13 5 7 1015.9 1015.8 0.0
30/08:30am 11.3 9.9 10.8 97 0.3 S 9 15 5 8 1016.1 - 0.0
30/08:00am 10.2 8.2 10.2 100 0.0 S 11 17 6 9 1015.7 - 0.0
30/07:30am 9.5 6.9 9.5 100 0.0 SSW 13 17 7 9 1015.4 - 0.0
30/07:23am 9.3 6.7 9.3 100 0.0 SSW 13 17 7 9 1015.4 - 0.0
30/07:00am 8.7 6.7 8.7 100 0.0 SSW 9 11 5 6 1014.8 - 0.0
30/06:54am 8.5 6.5 8.5 100 0.0 SW 9 11 5 6 1014.8 - 0.0
30/06:30am 8.6 5.8 8.6 100 0.0 SSW 13 15 7 8 1014.7 - 0.0
30/06:00am 8.8 6.1 8.8 100 0.0 SSW 13 17 7 9 1014.9 1014.7 0.0
30/05:30am 8.6 5.8 8.6 100 0.0 S 13 19 7 10 1014.7 - 0.0
30/05:15am 8.4 5.2 8.4 100 0.0 S 15 17 8 9 1014.6 - 0.0
30/05:00am 8.6 6.2 8.6 100 0.0 SSE 11 15 6 8 1014.4 - 0.0
30/04:46am 8.8 6.4 8.8 100 0.0 SSE 11 15 6 8 1014.2 - 0.0
30/04:30am 8.6 6.2 8.6 100 0.0 SSE 11 13 6 7 1014.3 - 0.0
30/04:27am 8.6 6.2 8.6 100 0.0 SSE 11 13 6 7 1014.3 - 0.0
30/04:20am 8.4 6.3 8.4 100 0.0 SSE 9 11 5 6 1014.4 - 0.0
30/04:00am 8.1 5.6 8.1 100 0.0 S 11 15 6 8 1014.7 - 0.0
30/03:30am 8.5 6.5 8.5 100 0.0 S 9 11 5 6 1014.6 - 0.0
30/03:00am 9.1 6.8 9.1 100 0.0 S 11 15 6 8 1015.0 1014.8 0.0
30/02:55am 9.1 6.8 9.1 100 0.0 S 11 15 6 8 1015.1 - 0.0
30/02:30am 9.3 6.7 9.3 100 0.0 S 13 17 7 9 1015.2 - 0.0
30/02:00am 9.6 7.1 9.6 100 0.0 SSW 13 20 7 11 1015.5 - 0.0
30/01:30am 9.5 6.2 9.5 100 0.0 SSW 17 22 9 12 1015.9 - 0.0
30/01:00am 9.7 6.8 9.7 100 0.0 SSW 15 20 8 11 1016.0 - 0.0
30/12:56am 9.7 6.8 9.7 100 0.0 SSW 15 20 8 11 1016.0 - 0.0
30/12:37am 9.7 6.8 9.7 100 0.0 SSW 15 19 8 10 1016.2 - 0.0
30/12:30am 9.7 6.8 9.7 100 0.0 S 15 19 8 10 1016.2 - 0.0
30/12:00am 9.9 6.6 9.6 98 0.2 S 17 20 9 11 1016.2 1016.1 0.0
 
Date/Time
EDT
Temp
°C
App
Temp
°C
Dew
Point
Rel
Hum
%
Delta-T
°C
Wind Press
QNH
hPa
Press
MSL
hPa
Rain
since 9 am
mm
Dir
 
Spd
km/h
Gust
km/h
Spd
kts
Gust
kts
29/11:30pm 10.0 6.3 9.4 96 0.3 S 19 24 10 13 1016.2 - 0.0
29/11:00pm 10.3 7.0 9.4 94 0.5 S 17 22 9 12 1016.3 - 0.0
29/10:30pm 10.1 6.3 9.2 94 0.5 S 19 22 10 12 1016.4 - 0.0
29/10:00pm 10.3 6.9 9.2 93 0.6 S 17 20 9 11 1016.9 - 0.0
29/09:30pm 10.8 7.4 9.2 90 0.8 S 17 22 9 12 1016.8 - 0.0
29/09:00pm 11.6 8.2 9.2 85 1.2 SSW 17 26 9 14 1016.6 1016.4 0.0
29/08:30pm 13.1 10.0 9.0 76 2.1 S 15 22 8 12 1016.1 - 0.0
29/08:00pm 16.8 14.4 7.2 53 4.9 NW 9 9 5 5 1015.6 - 0.0
29/07:30pm 17.7 15.8 7.7 52 5.2 WNW 7 11 4 6 1015.6 - 0.0

Other Formats:

Comma delimited format used in spreadsheet applications
http://www.bom.gov.au/fwo/IDV60801/IDV60801.94860.axf

JavaScript Object Notation format (JSON) in row-major order
http://www.bom.gov.au/fwo/IDV60801/IDV60801.94860.json